sensor_id;sensor_type;location;lat;lon;timestamp;P1;durP1;ratioP1;P2;durP2;ratioP2
24713;SDS011;12820;51.580;5.010;2022-09-13T00:03:46;8.02;;;4.32;;
24713;SDS011;12820;51.580;5.010;2022-09-13T00:08:48;8.73;;;4.63;;
24713;SDS011;12820;51.580;5.010;2022-09-13T00:13:51;12.13;;;4.68;;
24713;SDS011;12820;51.580;5.010;2022-09-13T00:18:53;8.90;;;4.93;;
24713;SDS011;12820;51.580;5.010;2022-09-13T00:23:56;12.57;;;4.50;;
24713;SDS011;12820;51.580;5.010;2022-09-13T00:28:58;8.88;;;4.40;;
24713;SDS011;12820;51.580;5.010;2022-09-13T00:34:00;11.50;;;4.32;;
24713;SDS011;12820;51.580;5.010;2022-09-13T00:39:02;7.88;;;4.53;;
24713;SDS011;12820;51.580;5.010;2022-09-13T00:44:05;9.38;;;5.72;;
24713;SDS011;12820;51.580;5.010;2022-09-13T00:49:45;9.93;;;5.30;;
24713;SDS011;12820;51.580;5.010;2022-09-13T00:54:50;14.13;;;5.35;;
24713;SDS011;12820;51.580;5.010;2022-09-13T01:00:04;9.45;;;5.45;;
24713;SDS011;12820;51.580;5.010;2022-09-13T01:05:13;9.68;;;5.45;;
24713;SDS011;12820;51.580;5.010;2022-09-13T01:10:16;11.35;;;5.47;;
24713;SDS011;12820;51.580;5.010;2022-09-13T01:15:19;9.93;;;5.72;;
24713;SDS011;12820;51.580;5.010;2022-09-13T01:20:22;10.35;;;5.82;;
24713;SDS011;12820;51.580;5.010;2022-09-13T01:25:42;9.43;;;5.63;;
24713;SDS011;12820;51.580;5.010;2022-09-13T01:52:07;9.98;;;5.88;;
24713;SDS011;12820;51.580;5.010;2022-09-13T01:57:28;10.13;;;6.30;;
24713;SDS011;12820;51.580;5.010;2022-09-13T02:02:40;11.15;;;6.28;;
24713;SDS011;12820;51.580;5.010;2022-09-13T02:07:49;9.70;;;5.60;;
24713;SDS011;12820;51.580;5.010;2022-09-13T02:12:56;10.60;;;5.63;;
24713;SDS011;12820;51.580;5.010;2022-09-13T02:18:06;10.60;;;5.78;;
24713;SDS011;12820;51.580;5.010;2022-09-13T02:23:17;9.23;;;5.40;;
24713;SDS011;12820;51.580;5.010;2022-09-13T02:28:31;11.50;;;5.90;;
24713;SDS011;12820;51.580;5.010;2022-09-13T02:33:36;10.82;;;5.35;;
24713;SDS011;12820;51.580;5.010;2022-09-13T02:43:59;13.45;;;6.78;;
24713;SDS011;12820;51.580;5.010;2022-09-13T02:49:10;11.18;;;6.60;;
24713;SDS011;12820;51.580;5.010;2022-09-13T02:54:22;12.00;;;7.13;;
24713;SDS011;12820;51.580;5.010;2022-09-13T02:59:25;12.32;;;7.30;;
24713;SDS011;12820;51.580;5.010;2022-09-13T03:04:27;12.75;;;7.45;;
24713;SDS011;12820;51.580;5.010;2022-09-13T03:09:30;12.30;;;7.38;;
24713;SDS011;12820;51.580;5.010;2022-09-13T03:14:51;13.23;;;7.75;;
24713;SDS011;12820;51.580;5.010;2022-09-13T03:30:56;12.80;;;6.95;;
24713;SDS011;12820;51.580;5.010;2022-09-13T03:41:21;14.02;;;7.22;;
24713;SDS011;12820;51.580;5.010;2022-09-13T03:46:35;12.73;;;7.30;;
24713;SDS011;12820;51.580;5.010;2022-09-13T03:51:42;12.07;;;6.95;;
24713;SDS011;12820;51.580;5.010;2022-09-13T04:02:12;11.77;;;6.88;;
24713;SDS011;12820;51.580;5.010;2022-09-13T04:07:16;12.55;;;7.22;;
24713;SDS011;12820;51.580;5.010;2022-09-13T04:12:20;13.98;;;6.88;;
24713;SDS011;12820;51.580;5.010;2022-09-13T04:17:22;14.73;;;6.90;;
24713;SDS011;12820;51.580;5.010;2022-09-13T04:22:24;11.02;;;6.78;;
24713;SDS011;12820;51.580;5.010;2022-09-13T04:27:26;13.20;;;6.97;;
24713;SDS011;12820;51.580;5.010;2022-09-13T04:32:28;12.48;;;7.15;;
24713;SDS011;12820;51.580;5.010;2022-09-13T04:37:30;12.55;;;6.60;;
24713;SDS011;12820;51.580;5.010;2022-09-13T04:42:32;12.27;;;6.80;;
24713;SDS011;12820;51.580;5.010;2022-09-13T04:47:34;14.13;;;7.03;;
24713;SDS011;12820;51.580;5.010;2022-09-13T04:52:36;13.10;;;6.82;;
24713;SDS011;12820;51.580;5.010;2022-09-13T04:57:38;11.65;;;6.40;;
24713;SDS011;12820;51.580;5.010;2022-09-13T05:02:41;11.93;;;6.40;;
24713;SDS011;12820;51.580;5.010;2022-09-13T05:07:42;15.82;;;6.82;;
24713;SDS011;12820;51.580;5.010;2022-09-13T05:12:45;12.23;;;6.75;;
24713;SDS011;12820;51.580;5.010;2022-09-13T05:17:47;14.25;;;6.38;;
24713;SDS011;12820;51.580;5.010;2022-09-13T05:22:49;13.32;;;6.97;;
24713;SDS011;12820;51.580;5.010;2022-09-13T05:27:51;14.60;;;7.38;;
24713;SDS011;12820;51.580;5.010;2022-09-13T05:32:53;12.30;;;7.53;;
24713;SDS011;12820;51.580;5.010;2022-09-13T05:37:55;12.57;;;6.22;;
24713;SDS011;12820;51.580;5.010;2022-09-13T05:42:57;12.20;;;6.80;;
24713;SDS011;12820;51.580;5.010;2022-09-13T05:48:00;12.32;;;6.45;;
24713;SDS011;12820;51.580;5.010;2022-09-13T05:53:03;12.93;;;6.70;;
24713;SDS011;12820;51.580;5.010;2022-09-13T05:58:05;10.98;;;6.30;;
24713;SDS011;12820;51.580;5.010;2022-09-13T06:03:07;13.30;;;6.55;;
24713;SDS011;12820;51.580;5.010;2022-09-13T06:08:09;13.68;;;6.65;;
24713;SDS011;12820;51.580;5.010;2022-09-13T06:13:11;11.55;;;6.45;;
24713;SDS011;12820;51.580;5.010;2022-09-13T06:18:13;14.20;;;7.15;;
24713;SDS011;12820;51.580;5.010;2022-09-13T06:23:15;10.30;;;6.38;;
24713;SDS011;12820;51.580;5.010;2022-09-13T06:28:18;13.77;;;6.70;;
24713;SDS011;12820;51.580;5.010;2022-09-13T06:33:22;12.10;;;7.38;;
24713;SDS011;12820;51.580;5.010;2022-09-13T06:38:24;13.73;;;6.78;;
24713;SDS011;12820;51.580;5.010;2022-09-13T06:43:26;13.15;;;7.93;;
24713;SDS011;12820;51.580;5.010;2022-09-13T06:48:31;13.80;;;8.13;;
24713;SDS011;12820;51.580;5.010;2022-09-13T06:53:35;16.23;;;8.55;;
24713;SDS011;12820;51.580;5.010;2022-09-13T06:58:39;13.38;;;7.82;;
24713;SDS011;12820;51.580;5.010;2022-09-13T07:03:43;13.07;;;7.68;;
24713;SDS011;12820;51.580;5.010;2022-09-13T07:08:55;18.35;;;8.75;;
24713;SDS011;12820;51.580;5.010;2022-09-13T07:13:59;16.63;;;8.95;;
24713;SDS011;12820;51.580;5.010;2022-09-13T07:19:03;18.88;;;10.40;;
24713;SDS011;12820;51.580;5.010;2022-09-13T07:24:07;18.50;;;10.98;;
24713;SDS011;12820;51.580;5.010;2022-09-13T07:29:10;20.48;;;9.23;;
24713;SDS011;12820;51.580;5.010;2022-09-13T07:34:17;25.30;;;10.88;;
24713;SDS011;12820;51.580;5.010;2022-09-13T07:39:21;22.52;;;11.55;;
24713;SDS011;12820;51.580;5.010;2022-09-13T07:44:24;18.42;;;10.10;;
24713;SDS011;12820;51.580;5.010;2022-09-13T07:49:26;24.23;;;12.05;;
24713;SDS011;12820;51.580;5.010;2022-09-13T07:54:28;21.17;;;11.10;;
24713;SDS011;12820;51.580;5.010;2022-09-13T07:59:30;21.55;;;11.40;;
24713;SDS011;12820;51.580;5.010;2022-09-13T08:04:32;22.73;;;12.77;;
24713;SDS011;12820;51.580;5.010;2022-09-13T08:09:37;22.65;;;12.13;;
24713;SDS011;12820;51.580;5.010;2022-09-13T08:14:39;19.98;;;10.80;;
24713;SDS011;12820;51.580;5.010;2022-09-13T08:19:41;21.63;;;11.77;;
24713;SDS011;12820;51.580;5.010;2022-09-13T08:24:43;22.17;;;11.77;;
24713;SDS011;12820;51.580;5.010;2022-09-13T08:29:45;19.75;;;10.60;;
24713;SDS011;12820;51.580;5.010;2022-09-13T08:34:47;16.48;;;10.35;;
24713;SDS011;12820;51.580;5.010;2022-09-13T08:39:49;19.48;;;10.52;;
24713;SDS011;12820;51.580;5.010;2022-09-13T08:44:52;19.08;;;10.10;;
24713;SDS011;12820;51.580;5.010;2022-09-13T08:50:10;20.42;;;10.57;;
24713;SDS011;12820;51.580;5.010;2022-09-13T08:55:18;17.42;;;9.77;;
24713;SDS011;12820;51.580;5.010;2022-09-13T09:00:29;19.88;;;10.30;;
24713;SDS011;12820;51.580;5.010;2022-09-13T09:05:48;19.73;;;9.10;;
24713;SDS011;12820;51.580;5.010;2022-09-13T09:10:52;14.93;;;8.18;;
24713;SDS011;12820;51.580;5.010;2022-09-13T09:15:59;16.17;;;8.38;;
24713;SDS011;12820;51.580;5.010;2022-09-13T09:21:09;11.75;;;6.60;;
24713;SDS011;12820;51.580;5.010;2022-09-13T09:26:22;14.75;;;6.22;;
24713;SDS011;12820;51.580;5.010;2022-09-13T09:42:13;11.35;;;5.88;;
24713;SDS011;12820;51.580;5.010;2022-09-13T09:47:27;11.25;;;5.95;;
24713;SDS011;12820;51.580;5.010;2022-09-13T10:03:18;10.00;;;5.03;;
24713;SDS011;12820;51.580;5.010;2022-09-13T10:08:25;8.50;;;4.45;;
24713;SDS011;12820;51.580;5.010;2022-09-13T10:13:32;7.65;;;4.20;;
24713;SDS011;12820;51.580;5.010;2022-09-13T10:18:35;10.95;;;3.53;;
24713;SDS011;12820;51.580;5.010;2022-09-13T10:23:46;5.72;;;2.78;;
24713;SDS011;12820;51.580;5.010;2022-09-13T10:29:07;4.95;;;2.40;;
24713;SDS011;12820;51.580;5.010;2022-09-13T10:34:30;4.35;;;1.80;;
24713;SDS011;12820;51.580;5.010;2022-09-13T10:39:35;5.03;;;1.70;;
24713;SDS011;12820;51.580;5.010;2022-09-13T10:49:52;4.18;;;1.85;;
24713;SDS011;12820;51.580;5.010;2022-09-13T11:00:27;5.03;;;1.85;;
24713;SDS011;12820;51.580;5.010;2022-09-13T11:10:43;3.35;;;1.75;;
24713;SDS011;12820;51.580;5.010;2022-09-13T11:21:41;5.65;;;1.92;;
24713;SDS011;12820;51.580;5.010;2022-09-13T11:37:23;4.55;;;2.33;;
24713;SDS011;12820;51.580;5.010;2022-09-13T11:53:18;5.78;;;3.40;;
24713;SDS011;12820;51.580;5.010;2022-09-13T11:58:35;6.95;;;3.22;;
24713;SDS011;12820;51.580;5.010;2022-09-13T12:08:55;5.50;;;2.95;;
24713;SDS011;12820;51.580;5.010;2022-09-13T12:14:03;7.30;;;3.40;;
24713;SDS011;12820;51.580;5.010;2022-09-13T12:24:47;5.55;;;2.70;;
24713;SDS011;12820;51.580;5.010;2022-09-13T12:29:53;6.28;;;3.22;;
24713;SDS011;12820;51.580;5.010;2022-09-13T12:35:05;7.55;;;3.22;;
24713;SDS011;12820;51.580;5.010;2022-09-13T13:01:29;5.93;;;2.55;;
24713;SDS011;12820;51.580;5.010;2022-09-13T13:06:34;6.40;;;2.70;;
24713;SDS011;12820;51.580;5.010;2022-09-13T13:11:43;5.38;;;2.80;;
24713;SDS011;12820;51.580;5.010;2022-09-13T13:16:48;6.45;;;2.10;;
24713;SDS011;12820;51.580;5.010;2022-09-13T13:21:50;4.47;;;2.60;;
24713;SDS011;12820;51.580;5.010;2022-09-13T13:26:56;7.18;;;3.30;;
24713;SDS011;12820;51.580;5.010;2022-09-13T13:37:04;4.65;;;2.45;;
24713;SDS011;12820;51.580;5.010;2022-09-13T13:42:27;3.78;;;2.20;;
24713;SDS011;12820;51.580;5.010;2022-09-13T13:52:35;4.82;;;2.63;;
24713;SDS011;12820;51.580;5.010;2022-09-13T13:57:49;5.65;;;2.60;;
24713;SDS011;12820;51.580;5.010;2022-09-13T14:13:19;6.05;;;2.42;;
24713;SDS011;12820;51.580;5.010;2022-09-13T14:29:22;6.03;;;2.00;;
24713;SDS011;12820;51.580;5.010;2022-09-13T14:34:28;5.95;;;2.72;;
24713;SDS011;12820;51.580;5.010;2022-09-13T14:39:31;3.53;;;1.40;;
24713;SDS011;12820;51.580;5.010;2022-09-13T14:44:34;4.28;;;1.50;;
24713;SDS011;12820;51.580;5.010;2022-09-13T14:49:38;2.95;;;1.15;;
24713;SDS011;12820;51.580;5.010;2022-09-13T14:54:50;4.60;;;1.17;;
24713;SDS011;12820;51.580;5.010;2022-09-13T15:00:14;2.42;;;0.98;;
24713;SDS011;12820;51.580;5.010;2022-09-13T15:05:20;4.95;;;1.23;;
24713;SDS011;12820;51.580;5.010;2022-09-13T15:10:25;3.58;;;0.93;;
24713;SDS011;12820;51.580;5.010;2022-09-13T15:15:31;3.60;;;1.05;;
24713;SDS011;12820;51.580;5.010;2022-09-13T15:31:04;4.38;;;1.13;;
24713;SDS011;12820;51.580;5.010;2022-09-13T15:41:20;3.60;;;1.38;;
24713;SDS011;12820;51.580;5.010;2022-09-13T15:46:22;5.47;;;1.30;;
24713;SDS011;12820;51.580;5.010;2022-09-13T15:51:25;3.80;;;1.15;;
24713;SDS011;12820;51.580;5.010;2022-09-13T15:56:29;2.72;;;0.82;;
24713;SDS011;12820;51.580;5.010;2022-09-13T16:01:33;2.33;;;0.93;;
24713;SDS011;12820;51.580;5.010;2022-09-13T16:06:35;3.85;;;1.10;;
24713;SDS011;12820;51.580;5.010;2022-09-13T16:11:37;3.65;;;1.52;;
24713;SDS011;12820;51.580;5.010;2022-09-13T16:16:40;4.85;;;1.55;;
24713;SDS011;12820;51.580;5.010;2022-09-13T16:21:42;4.03;;;1.52;;
24713;SDS011;12820;51.580;5.010;2022-09-13T16:26:44;2.63;;;1.23;;
24713;SDS011;12820;51.580;5.010;2022-09-13T16:31:46;4.80;;;1.02;;
24713;SDS011;12820;51.580;5.010;2022-09-13T16:36:49;4.20;;;1.27;;
24713;SDS011;12820;51.580;5.010;2022-09-13T16:41:51;2.17;;;0.88;;
24713;SDS011;12820;51.580;5.010;2022-09-13T16:46:53;2.72;;;0.93;;
24713;SDS011;12820;51.580;5.010;2022-09-13T16:51:55;3.28;;;1.25;;
24713;SDS011;12820;51.580;5.010;2022-09-13T16:57:02;3.70;;;1.02;;
24713;SDS011;12820;51.580;5.010;2022-09-13T17:02:08;4.38;;;1.50;;
24713;SDS011;12820;51.580;5.010;2022-09-13T17:07:12;2.63;;;1.25;;
24713;SDS011;12820;51.580;5.010;2022-09-13T17:12:15;3.95;;;1.50;;
24713;SDS011;12820;51.580;5.010;2022-09-13T17:17:17;3.92;;;1.67;;
24713;SDS011;12820;51.580;5.010;2022-09-13T17:22:18;7.05;;;2.83;;
24713;SDS011;12820;51.580;5.010;2022-09-13T17:27:21;5.05;;;2.08;;
24713;SDS011;12820;51.580;5.010;2022-09-13T17:32:23;6.78;;;1.45;;
24713;SDS011;12820;51.580;5.010;2022-09-13T17:37:25;6.63;;;1.50;;
24713;SDS011;12820;51.580;5.010;2022-09-13T17:42:27;2.58;;;1.00;;
24713;SDS011;12820;51.580;5.010;2022-09-13T17:47:29;4.82;;;1.10;;
24713;SDS011;12820;51.580;5.010;2022-09-13T17:52:31;3.60;;;1.40;;
24713;SDS011;12820;51.580;5.010;2022-09-13T17:57:36;3.30;;;1.00;;
24713;SDS011;12820;51.580;5.010;2022-09-13T18:02:38;2.70;;;1.02;;
24713;SDS011;12820;51.580;5.010;2022-09-13T18:07:40;3.60;;;1.05;;
24713;SDS011;12820;51.580;5.010;2022-09-13T18:12:42;8.80;;;1.45;;
24713;SDS011;12820;51.580;5.010;2022-09-13T18:17:44;7.07;;;1.13;;
24713;SDS011;12820;51.580;5.010;2022-09-13T18:22:46;4.25;;;1.08;;
24713;SDS011;12820;51.580;5.010;2022-09-13T18:27:48;5.90;;;1.17;;
24713;SDS011;12820;51.580;5.010;2022-09-13T18:32:51;6.65;;;1.60;;
24713;SDS011;12820;51.580;5.010;2022-09-13T18:37:53;6.65;;;1.42;;
24713;SDS011;12820;51.580;5.010;2022-09-13T18:42:55;4.60;;;1.52;;
24713;SDS011;12820;51.580;5.010;2022-09-13T18:47:57;6.43;;;1.67;;
24713;SDS011;12820;51.580;5.010;2022-09-13T18:53:00;9.90;;;3.00;;
24713;SDS011;12820;51.580;5.010;2022-09-13T18:58:02;5.13;;;1.42;;
24713;SDS011;12820;51.580;5.010;2022-09-13T19:03:06;4.63;;;1.40;;
24713;SDS011;12820;51.580;5.010;2022-09-13T19:08:13;5.72;;;1.45;;
24713;SDS011;12820;51.580;5.010;2022-09-13T19:13:16;5.45;;;1.45;;
24713;SDS011;12820;51.580;5.010;2022-09-13T19:18:19;2.92;;;1.27;;
24713;SDS011;12820;51.580;5.010;2022-09-13T19:23:21;6.60;;;1.90;;
24713;SDS011;12820;51.580;5.010;2022-09-13T19:28:45;4.43;;;1.85;;
24713;SDS011;12820;51.580;5.010;2022-09-13T19:33:48;5.15;;;2.00;;
24713;SDS011;12820;51.580;5.010;2022-09-13T19:38:52;8.07;;;1.60;;
24713;SDS011;12820;51.580;5.010;2022-09-13T19:43:57;6.55;;;2.67;;
24713;SDS011;12820;51.580;5.010;2022-09-13T19:49:01;4.50;;;1.83;;
24713;SDS011;12820;51.580;5.010;2022-09-13T19:54:04;6.80;;;1.40;;
24713;SDS011;12820;51.580;5.010;2022-09-13T19:59:09;4.57;;;1.50;;
24713;SDS011;12820;51.580;5.010;2022-09-13T20:04:13;8.25;;;1.88;;
24713;SDS011;12820;51.580;5.010;2022-09-13T20:09:18;4.78;;;1.30;;
24713;SDS011;12820;51.580;5.010;2022-09-13T20:14:21;5.45;;;1.60;;
24713;SDS011;12820;51.580;5.010;2022-09-13T20:19:23;3.97;;;1.20;;
24713;SDS011;12820;51.580;5.010;2022-09-13T20:24:43;5.30;;;1.17;;
24713;SDS011;12820;51.580;5.010;2022-09-13T20:29:45;2.45;;;1.02;;
24713;SDS011;12820;51.580;5.010;2022-09-13T20:34:50;5.15;;;1.55;;
24713;SDS011;12820;51.580;5.010;2022-09-13T20:39:55;4.15;;;0.93;;
24713;SDS011;12820;51.580;5.010;2022-09-13T20:44:58;6.05;;;1.10;;
24713;SDS011;12820;51.580;5.010;2022-09-13T20:49:59;3.92;;;1.10;;
24713;SDS011;12820;51.580;5.010;2022-09-13T20:55:02;3.25;;;1.17;;
24713;SDS011;12820;51.580;5.010;2022-09-13T21:00:04;5.13;;;1.15;;
24713;SDS011;12820;51.580;5.010;2022-09-13T21:05:07;6.22;;;1.13;;
24713;SDS011;12820;51.580;5.010;2022-09-13T21:10:09;6.45;;;1.73;;
24713;SDS011;12820;51.580;5.010;2022-09-13T21:15:11;7.47;;;1.58;;
24713;SDS011;12820;51.580;5.010;2022-09-13T21:20:13;6.05;;;1.42;;
24713;SDS011;12820;51.580;5.010;2022-09-13T21:25:15;7.57;;;1.40;;
24713;SDS011;12820;51.580;5.010;2022-09-13T21:30:17;4.35;;;1.20;;
24713;SDS011;12820;51.580;5.010;2022-09-13T21:35:19;4.68;;;1.65;;
24713;SDS011;12820;51.580;5.010;2022-09-13T21:40:21;5.45;;;1.30;;
24713;SDS011;12820;51.580;5.010;2022-09-13T21:45:23;6.35;;;1.55;;
24713;SDS011;12820;51.580;5.010;2022-09-13T21:50:25;6.18;;;1.67;;
24713;SDS011;12820;51.580;5.010;2022-09-13T21:55:45;7.90;;;1.10;;
24713;SDS011;12820;51.580;5.010;2022-09-13T22:00:47;3.90;;;1.00;;
24713;SDS011;12820;51.580;5.010;2022-09-13T22:05:53;6.03;;;1.60;;
24713;SDS011;12820;51.580;5.010;2022-09-13T22:10:56;6.65;;;1.45;;
24713;SDS011;12820;51.580;5.010;2022-09-13T22:16:06;5.82;;;1.60;;
24713;SDS011;12820;51.580;5.010;2022-09-13T22:21:11;5.32;;;1.55;;
24713;SDS011;12820;51.580;5.010;2022-09-13T22:26:16;6.30;;;1.77;;
24713;SDS011;12820;51.580;5.010;2022-09-13T22:31:21;5.18;;;1.60;;
24713;SDS011;12820;51.580;5.010;2022-09-13T22:36:25;5.40;;;1.52;;
24713;SDS011;12820;51.580;5.010;2022-09-13T22:41:29;5.50;;;1.75;;
24713;SDS011;12820;51.580;5.010;2022-09-13T22:46:33;4.97;;;1.67;;
24713;SDS011;12820;51.580;5.010;2022-09-13T22:51:37;6.93;;;1.75;;
24713;SDS011;12820;51.580;5.010;2022-09-13T22:56:39;7.35;;;1.73;;
24713;SDS011;12820;51.580;5.010;2022-09-13T23:01:41;8.32;;;1.80;;
24713;SDS011;12820;51.580;5.010;2022-09-13T23:06:44;7.10;;;1.90;;
24713;SDS011;12820;51.580;5.010;2022-09-13T23:11:46;8.23;;;1.88;;
24713;SDS011;12820;51.580;5.010;2022-09-13T23:16:49;9.65;;;2.10;;
24713;SDS011;12820;51.580;5.010;2022-09-13T23:21:53;5.70;;;2.13;;
24713;SDS011;12820;51.580;5.010;2022-09-13T23:26:55;6.32;;;1.83;;
24713;SDS011;12820;51.580;5.010;2022-09-13T23:31:57;9.07;;;1.75;;
24713;SDS011;12820;51.580;5.010;2022-09-13T23:36:59;6.13;;;2.17;;
24713;SDS011;12820;51.580;5.010;2022-09-13T23:42:02;5.15;;;2.05;;
24713;SDS011;12820;51.580;5.010;2022-09-13T23:47:05;6.65;;;1.90;;
24713;SDS011;12820;51.580;5.010;2022-09-13T23:52:07;7.55;;;2.00;;
24713;SDS011;12820;51.580;5.010;2022-09-13T23:57:09;6.68;;;2.15;;
